Time;durP1;ratioP1;P1;durP2;ratioP2;P2;SDS_P1;SDS_P2;PMS_P1;PMS_P2;Temp;Humidity;BMP_temperature;BMP_pressure;BME280_temperature;BME280_humidity;BME280_pressure;Samples;Min_cycle;Max_cycle;Signal;HPM_P1;HPM_P2
2021/06/18 00:06:34;;;;;;;9.00;4.28;;;;;;;22.67;71.76;100637.19;4829043;29;20307;-70
2021/06/18 00:09:02;;;;;;;9.32;4.50;;;;;;;22.75;71.80;100634.00;4803847;29;20062;-68
2021/06/18 00:11:30;;;;;;;11.20;5.22;;;;;;;22.70;72.75;100611.16;4805151;29;20054;-66
2021/06/18 00:13:58;;;;;;;12.40;5.30;;;;;;;22.60;73.52;100609.09;4805441;29;20058;-65
2021/06/18 00:16:25;;;;;;;10.02;5.28;;;;;;;22.64;73.55;100613.53;4820406;29;20062;-66
2021/06/18 00:18:52;;;;;;;9.10;5.20;;;;;;;22.63;73.86;100625.16;4821328;29;20057;-70
2021/06/18 00:21:20;;;;;;;9.75;5.40;;;;;;;22.69;74.36;100621.56;4820127;29;20054;-68
2021/06/18 00:23:47;;;;;;;8.93;5.35;;;;;;;22.67;74.82;100606.31;4821261;29;20070;-70
2021/06/18 00:26:15;;;;;;;11.57;5.40;;;;;;;22.66;74.91;100597.09;4791922;29;20047;-66
2021/06/18 00:28:42;;;;;;;11.25;5.65;;;;;;;22.61;75.01;100603.09;4823361;29;20407;-66
2021/06/18 00:31:10;;;;;;;9.88;5.10;;;;;;;22.73;74.79;100611.16;4824617;29;20054;-66
2021/06/18 00:33:38;;;;;;;9.05;5.90;;;;;;;22.72;74.92;100605.91;4822776;29;20537;-67
2021/06/18 00:36:06;;;;;;;8.75;5.70;;;;;;;22.66;75.39;100615.94;4823113;29;20074;-66
2021/06/18 00:38:33;;;;;;;8.90;6.00;;;;;;;22.46;76.19;100615.44;4823179;29;20069;-66
2021/06/18 00:41:01;;;;;;;11.32;6.40;;;;;;;22.60;76.02;100615.50;4823460;29;20050;-69
2021/06/18 00:43:28;;;;;;;13.80;6.03;;;;;;;22.59;75.90;100608.31;4886080;29;20398;-67
2021/06/18 00:45:57;;;;;;;11.15;5.90;;;;;;;22.52;76.09;100611.06;4823863;29;20074;-67
2021/06/18 00:52:55;;;;;;;7.65;5.40;;;;;;;22.59;76.05;100604.69;4823034;29;20402;-77
2021/06/18 00:55:22;;;;;;;9.35;5.85;;;;;;;22.46;77.20;100598.59;4824064;29;20065;-72
2021/06/18 00:57:51;;;;;;;9.88;5.93;;;;;;;22.66;76.06;100622.38;4823403;29;20480;-76
2021/06/18 01:00:19;;;;;;;10.73;6.05;;;;;;;22.69;76.16;100620.75;4821390;29;20055;-74
2021/06/18 01:07:18;;;;;;;9.65;5.93;;;;;;;22.68;76.51;100599.50;4839441;29;20470;-78
2021/06/18 01:10:07;;;;;;;9.05;6.13;;;;;;;22.60;77.19;100609.09;4891112;29;20397;-76
2021/06/18 01:12:43;;;;;;;7.82;5.93;;;;;;;22.70;77.18;100600.69;4841599;29;20058;-71
2021/06/18 01:15:52;;;;;;;9.63;6.35;;;;;;;22.67;77.19;100604.31;4839399;29;20494;-66
2021/06/18 01:22:15;;;;;;;10.02;5.65;;;;;;;22.52;78.38;100608.25;4897476;29;20056;-69
2021/06/18 01:25:05;;;;;;;10.32;5.80;;;;;;;22.76;77.35;100601.09;4881987;29;20052;-67
2021/06/18 01:27:42;;;;;;;8.90;5.95;;;;;;;22.64;78.01;100595.88;4881916;29;20053;-68
2021/06/18 01:30:17;;;;;;;8.07;5.60;;;;;;;22.71;78.03;100593.06;4896968;29;20527;-67
2021/06/18 01:37:13;;;;;;;9.13;5.63;;;;;;;22.27;79.90;100576.47;4896785;29;20052;-68
2021/06/18 01:39:42;;;;;;;8.80;5.85;;;;;;;22.50;79.38;100570.53;4897599;29;20055;-67
2021/06/18 01:42:11;;;;;;;7.73;5.50;;;;;;;22.62;78.23;100573.00;4897167;29;20072;-69
2021/06/18 01:44:39;;;;;;;8.68;5.40;;;;;;;22.58;78.12;100560.97;4881754;29;20057;-72
2021/06/18 01:47:08;;;;;;;8.52;5.57;;;;;;;22.70;77.73;100569.03;4881519;29;20059;-76
2021/06/18 01:54:02;;;;;;;9.35;4.70;;;;;;;22.41;78.93;100559.69;4895943;28;20048;-77
2021/06/18 01:56:33;;;;;;;7.18;3.97;;;;;;;22.60;77.76;100564.16;4838970;29;20061;-75
2021/06/18 01:59:01;;;;;;;11.30;4.00;;;;;;;22.75;76.60;100565.81;4840395;29;20065;-69
2021/06/18 02:01:33;;;;;;;8.10;4.13;;;;;;;22.65;76.76;100566.59;4839667;29;20058;-76
2021/06/18 02:04:00;;;;;;;9.70;4.25;;;;;;;22.51;77.00;100563.75;4839013;29;20057;-75
2021/06/18 02:06:28;;;;;;;6.07;4.00;;;;;;;22.34;77.72;100568.09;4840499;29;20058;-74
2021/06/18 02:08:59;;;;;;;12.90;3.97;;;;;;;22.48;77.14;100561.69;4838703;29;20058;-80
2021/06/18 02:11:28;;;;;;;6.38;3.63;;;;;;;22.52;77.14;100568.13;4839093;29;20045;-79
2021/06/18 02:13:57;;;;;;;9.93;3.70;;;;;;;22.39;77.18;100576.13;4841378;29;20058;-77
2021/06/18 02:16:26;;;;;;;7.55;3.33;;;;;;;22.55;77.43;100592.63;4840431;29;20510;-75
2021/06/18 02:18:54;;;;;;;9.32;3.20;;;;;;;22.73;76.04;100576.63;4838873;29;20061;-81
2021/06/18 02:21:24;;;;;;;7.38;3.33;;;;;;;22.84;75.80;100558.59;4840055;29;20061;-79
2021/06/18 02:23:57;;;;;;;4.57;2.83;;;;;;;22.64;76.10;100542.53;4841738;29;20069;-81
2021/06/18 02:26:25;;;;;;;6.75;3.40;;;;;;;22.60;76.16;100533.28;4824764;29;20066;-78
2021/06/18 02:28:53;;;;;;;7.65;3.15;;;;;;;22.43;77.36;100528.41;4840819;29;20250;-78
2021/06/18 02:31:22;;;;;;;8.45;3.55;;;;;;;22.41;77.52;100520.38;4841850;29;20447;-82
2021/06/18 02:33:51;;;;;;;9.63;3.58;;;;;;;22.22;78.17;100513.13;4839631;29;20061;-68
2021/06/18 02:36:19;;;;;;;8.02;3.30;;;;;;;22.23;78.36;100516.72;4823389;29;20390;-67
2021/06/18 02:38:48;;;;;;;5.50;3.10;;;;;;;22.13;78.04;100517.50;4839852;29;20062;-66
2021/06/18 02:41:15;;;;;;;11.50;3.30;;;;;;;22.32;77.50;100511.53;4840571;29;20050;-68
2021/06/18 02:43:43;;;;;;;6.95;2.85;;;;;;;22.48;75.92;100500.75;4838324;29;20062;-66
2021/06/18 02:46:18;;;;;;;6.78;2.80;;;;;;;22.16;76.73;100503.50;4822896;29;20077;-68
2021/06/18 02:48:48;;;;;;;7.47;3.05;;;;;;;21.95;78.38;100497.81;4838354;29;20403;-74
2021/06/18 02:51:39;;;;;;;9.23;3.30;;;;;;;22.23;77.34;100508.31;4838631;29;20394;-74
2021/06/18 02:54:28;;;;;;;6.72;3.45;;;;;;;22.17;78.16;100507.91;4863912;29;20063;-69
2021/06/18 02:56:58;;;;;;;5.95;3.28;;;;;;;22.15;78.00;100510.31;4895770;29;20085;-69
2021/06/18 02:59:56;;;;;;;7.38;3.75;;;;;;;22.45;75.70;100506.38;4879856;29;20424;-68
2021/06/18 03:02:30;;;;;;;6.35;2.90;;;;;;;22.27;75.64;100509.94;4895444;29;20096;-75
2021/06/18 03:04:59;;;;;;;8.45;2.90;;;;;;;22.21;75.57;100522.75;4881049;29;20072;-70
2021/06/18 03:07:31;;;;;;;6.82;3.05;;;;;;;22.27;76.02;100504.31;4896301;29;20528;-68
2021/06/18 03:10:03;;;;;;;6.40;2.75;;;;;;;22.45;75.24;100509.97;4880648;29;20155;-75
2021/06/18 03:12:31;;;;;;;6.72;2.80;;;;;;;22.28;75.66;100507.94;4896449;29;20065;-66
2021/06/18 03:15:05;;;;;;;7.85;3.22;;;;;;;22.31;75.71;100515.56;4895513;29;20053;-73
2021/06/18 03:17:37;;;;;;;7.07;2.83;;;;;;;22.16;76.53;100511.91;4895719;29;20067;-75
2021/06/18 03:20:12;;;;;;;6.15;3.05;;;;;;;22.18;76.62;100522.72;4895409;29;20060;-76
2021/06/18 03:22:41;;;;;;;7.80;2.60;;;;;;;22.31;76.08;100538.00;4880265;29;20048;-77
2021/06/18 03:25:08;;;;;;;7.70;2.78;;;;;;;22.34;76.06;100540.03;4880011;29;20053;-76
2021/06/18 03:27:37;;;;;;;6.53;2.45;;;;;;;22.48;75.03;100558.91;4896602;29;20053;-80
2021/06/18 03:30:06;;;;;;;9.65;2.90;;;;;;;22.54;75.48;100575.00;4880471;29;20072;-64
2021/06/18 03:32:37;;;;;;;7.00;2.85;;;;;;;22.64;75.96;100604.28;4839088;29;20069;-66
2021/06/18 03:35:06;;;;;;;7.60;3.17;;;;;;;22.72;76.68;100595.50;4900229;29;20061;-69
2021/06/18 03:37:35;;;;;;;13.55;4.60;;;;;;;22.50;79.69;100590.19;4838580;29;20073;-69
2021/06/18 03:40:04;;;;;;;10.00;4.87;;;;;;;22.53;80.82;100580.97;4837274;29;20402;-71
2021/06/18 03:42:31;;;;;;;13.85;5.00;;;;;;;22.27;82.72;100585.72;4822657;29;20076;-68
2021/06/18 03:44:59;;;;;;;9.50;4.80;;;;;;;22.46;81.96;100586.56;4838525;29;20053;-72
2021/06/18 03:47:27;;;;;;;10.48;5.00;;;;;;;22.24;83.26;100580.09;4837734;29;20057;-72
2021/06/18 03:49:56;;;;;;;10.75;5.43;;;;;;;22.31;82.80;100568.88;4838324;29;20482;-65
2021/06/18 03:52:23;;;;;;;11.38;5.72;;;;;;;22.21;82.99;100559.22;4838711;29;20494;-67
2021/06/18 03:54:56;;;;;;;10.70;5.50;;;;;;;21.88;84.81;100555.91;4838823;29;20066;-67
2021/06/18 03:57:24;;;;;;;9.27;5.35;;;;;;;21.85;85.35;100557.47;4837970;29;20053;-70
2021/06/18 03:59:52;;;;;;;10.15;5.68;;;;;;;21.77;86.79;100555.00;4838845;29;20078;-68
2021/06/18 04:02:20;;;;;;;10.27;5.75;;;;;;;21.86;85.59;100547.84;4838665;29;20054;-76
2021/06/18 04:04:52;;;;;;;11.40;5.95;;;;;;;21.67;87.29;100556.53;4838372;29;20069;-66
2021/06/18 04:07:21;;;;;;;9.25;5.25;;;;;;;21.94;85.50;100560.72;4898676;29;20065;-74
2021/06/18 04:09:50;;;;;;;14.07;5.60;;;;;;;21.89;85.38;100563.91;4839361;29;20140;-66
2021/06/18 04:12:17;;;;;;;9.80;5.45;;;;;;;21.78;85.57;100551.81;4885665;29;20410;-70
2021/06/18 04:14:45;;;;;;;8.45;5.20;;;;;;;21.58;86.16;100539.28;4837346;29;20057;-77
2021/06/18 04:17:15;;;;;;;9.35;5.60;;;;;;;21.54;86.76;100532.84;4838331;29;20058;-68
2021/06/18 04:19:53;;;;;;;12.30;6.40;;;;;;;21.27;88.27;100525.84;4837917;29;20061;-68
2021/06/18 04:22:36;;;;;;;16.58;7.35;;;;;;;21.35;88.77;100529.50;4837244;29;20057;-67
2021/06/18 04:25:10;;;;;;;15.45;7.20;;;;;;;21.13;89.74;100518.16;4823157;29;20052;-68
2021/06/18 04:27:37;;;;;;;15.88;8.27;;;;;;;21.40;89.38;100503.91;4839543;29;20058;-68
2021/06/18 04:30:07;;;;;;;15.15;8.07;;;;;;;21.37;90.60;100505.53;4838502;29;20054;-70
2021/06/18 04:32:35;;;;;;;13.40;8.40;;;;;;;21.57;89.00;100512.44;4838407;29;20079;-74
2021/06/18 04:35:04;;;;;;;12.70;8.15;;;;;;;21.75;88.25;100520.94;4840094;29;20193;-77
2021/06/18 04:37:33;;;;;;;12.43;7.57;;;;;;;21.70;88.42;100510.91;4838439;29;20058;-75
2021/06/18 04:40:01;;;;;;;15.20;7.75;;;;;;;21.71;88.15;100512.50;4838450;29;20410;-80
2021/06/18 04:42:33;;;;;;;12.82;7.72;;;;;;;21.73;87.85;100507.31;4837310;29;20061;-73
2021/06/18 04:45:00;;;;;;;11.63;7.85;;;;;;;21.86;87.91;100508.59;4838005;29;20054;-76
2021/06/18 04:47:28;;;;;;;14.70;7.30;;;;;;;22.02;87.20;100497.84;4839407;29;20054;-77
2021/06/18 04:49:55;;;;;;;13.00;7.78;;;;;;;21.91;86.76;100494.22;4839592;29;20398;-77
2021/06/18 04:56:51;;;;;;;13.27;6.55;;;;;;;21.91;87.32;100499.00;4838817;29;20050;-74
2021/06/18 04:59:20;;;;;;;12.77;6.90;;;;;;;22.14;86.39;100502.28;4837391;29;20058;-69
2021/06/18 05:01:47;;;;;;;9.20;6.10;;;;;;;22.36;84.75;100503.94;4841684;29;20065;-72
2021/06/18 05:04:15;;;;;;;8.88;5.65;;;;;;;22.47;84.20;100495.53;4837331;29;20058;-73
2021/06/18 05:11:11;;;;;;;12.32;6.03;;;;;;;22.94;81.35;100495.19;4841193;29;20054;-69
2021/06/18 05:13:38;;;;;;;9.88;5.38;;;;;;;23.02;80.24;100500.41;4840761;29;20058;-67
2021/06/18 05:16:06;;;;;;;10.68;5.40;;;;;;;23.13;79.65;100495.59;4840904;29;20081;-66
2021/06/18 05:18:34;;;;;;;10.13;5.07;;;;;;;22.96;79.43;100506.84;4840861;29;20056;-67
2021/06/18 05:25:28;;;;;;;9.23;5.00;;;;;;;22.91;79.11;100498.81;4841251;29;20153;-72
2021/06/18 05:27:55;;;;;;;9.23;5.00;;;;;;;23.05;78.07;100501.59;4842589;29;20049;-71
2021/06/18 05:30:23;;;;;;;11.32;5.22;;;;;;;23.22;77.83;100515.63;4839749;29;20057;-66
2021/06/18 05:32:51;;;;;;;11.45;4.57;;;;;;;23.23;77.80;100510.81;4842084;29;20057;-67
2021/06/18 05:35:19;;;;;;;9.95;4.95;;;;;;;23.41;77.13;100503.97;4841539;29;20061;-70
2021/06/18 05:42:26;;;;;;;9.13;4.63;;;;;;;23.74;75.26;100493.44;4841066;29;20502;-66
2021/06/18 05:44:55;;;;;;;;;;;;;;;23.69;74.99;100494.69;4839545;29;20057;-65
2021/06/18 05:47:23;;;;;;;12.23;4.93;;;;;;;23.89;75.04;100501.41;4823038;29;19936;-72
2021/06/18 05:49:51;;;;;;;9.60;5.28;;;;;;;23.88;74.74;100502.66;4823943;29;20065;-68
2021/06/18 05:52:20;;;;;;;7.60;4.00;;;;;;;23.91;75.28;100498.19;4840305;29;20127;-67
2021/06/18 05:54:47;;;;;;;18.65;5.13;;;;;;;23.92;74.72;100500.59;4846634;29;20054;-65
2021/06/18 05:57:15;;;;;;;11.32;4.50;;;;;;;24.13;73.35;100482.88;4839969;29;20058;-68
2021/06/18 05:59:43;;;;;;;9.32;5.05;;;;;;;23.92;75.03;100491.38;4839239;29;20058;-66
2021/06/18 06:02:10;;;;;;;9.50;5.15;;;;;;;23.91;74.92;100487.75;4840328;29;20053;-69
2021/06/18 06:04:38;;;;;;;13.30;4.97;;;;;;;23.94;74.63;100491.75;4839299;29;20508;-67
2021/06/18 06:07:05;;;;;;;9.65;5.30;;;;;;;24.29;73.38;100498.03;4902959;29;20054;-67
2021/06/18 06:09:32;;;;;;;11.43;5.53;;;;;;;24.13;73.91;100496.94;4840676;29;20173;-71
2021/06/18 06:12:00;;;;;;;10.02;5.22;;;;;;;24.10;73.30;100515.44;4842278;29;20054;-75
2021/06/18 06:14:27;;;;;;;13.77;5.38;;;;;;;24.69;71.70;100505.03;4841303;29;20062;-71
2021/06/18 06:16:55;;;;;;;10.23;4.90;;;;;;;24.43;71.69;100509.22;4904636;29;20058;-71
2021/06/18 06:19:22;;;;;;;11.02;4.78;;;;;;;24.14;72.62;100509.78;4848171;29;20054;-64
2021/06/18 06:26:19;;;;;;;10.02;4.75;;;;;;;24.26;71.47;100498.88;4843099;29;20054;-72
2021/06/18 06:28:47;;;;;;;12.30;4.88;;;;;;;24.54;71.65;100495.06;4844704;29;20050;-67
2021/06/18 06:31:14;;;;;;;13.15;4.93;;;;;;;24.41;71.61;100493.94;4842531;29;20062;-70
2021/06/18 06:33:42;;;;;;;13.20;5.07;;;;;;;24.62;70.96;100507.09;4840494;29;20058;-64
2021/06/18 06:36:09;;;;;;;9.32;5.28;;;;;;;24.71;69.79;100505.41;4846269;29;20062;-66
2021/06/18 06:43:14;;;;;;;10.70;4.75;;;;;;;24.42;70.34;100502.00;4844307;29;20058;-69
2021/06/18 06:45:42;;;;;;;14.95;5.22;;;;;;;24.49;69.27;100499.13;4842808;29;20057;-65
2021/06/18 06:48:09;;;;;;;10.02;4.25;;;;;;;24.75;68.45;100511.03;4904369;29;20052;-65
2021/06/18 06:50:37;;;;;;;12.93;4.60;;;;;;;24.59;68.44;100499.44;4823993;29;20057;-66
2021/06/18 06:53:07;;;;;;;12.68;4.57;;;;;;;24.50;69.19;100500.72;4840103;29;20058;-65
2021/06/18 06:55:35;;;;;;;13.75;4.85;;;;;;;24.53;69.32;100515.97;4839220;29;20181;-70
2021/06/18 06:58:04;;;;;;;12.02;5.35;;;;;;;24.36;70.04;100503.63;4840073;29;20054;-67
2021/06/18 07:00:32;;;;;;;12.63;5.20;;;;;;;24.48;69.31;100505.94;4838752;29;20077;-70
2021/06/18 07:03:00;;;;;;;14.60;4.95;;;;;;;24.45;69.88;100512.41;4839089;29;20504;-71
2021/06/18 07:05:27;;;;;;;12.02;4.60;;;;;;;24.51;68.77;100518.41;4840205;29;20161;-68
2021/06/18 07:07:55;;;;;;;11.00;4.72;;;;;;;24.63;69.43;100506.66;4842511;29;20050;-73
2021/06/18 07:10:22;;;;;;;14.07;4.93;;;;;;;24.47;69.79;100515.63;4909711;29;20124;-82
2021/06/18 07:12:50;;;;;;;10.52;4.57;;;;;;;24.40;69.62;100510.03;4846330;29;20058;-83
2021/06/18 07:15:17;;;;;;;15.23;4.55;;;;;;;24.45;68.93;100503.16;4846064;29;20106;-82
2021/06/18 07:17:44;;;;;;;10.75;4.90;;;;;;;24.46;68.98;100508.38;4845783;29;20061;-77
2021/06/18 07:20:12;;;;;;;14.10;4.45;;;;;;;24.32;69.41;100508.47;4843160;29;20050;-84
2021/06/18 07:22:40;;;;;;;21.80;6.45;;;;;;;24.60;68.41;100515.13;4843095;29;20050;-71
2021/06/18 07:29:31;;;;;;;9.18;3.92;;;;;;;24.81;66.99;100526.28;4844830;29;20046;-80
2021/06/18 07:31:59;;;;;;;14.55;4.28;;;;;;;24.97;66.62;100532.19;4841226;29;20058;-75
2021/06/18 07:34:27;;;;;;;18.10;4.55;;;;;;;25.17;65.75;100530.41;4842596;29;20061;-80
2021/06/18 07:36:54;;;;;;;11.48;4.07;;;;;;;24.94;65.88;100531.00;4843700;29;20058;-77
2021/06/18 07:39:33;;;;;;;12.80;3.80;;;;;;;24.94;66.50;100539.47;4897838;29;20064;-83
2021/06/18 07:42:00;;;;;;;14.73;4.43;;;;;;;25.35;65.88;100534.66;4843263;29;20053;-81
2021/06/18 07:44:28;;;;;;;15.90;4.18;;;;;;;25.40;64.84;100531.41;4811283;29;20077;-76
2021/06/18 07:46:55;;;;;;;14.35;3.60;;;;;;;25.53;64.39;100529.66;4840935;29;20061;-74
2021/06/18 07:49:23;;;;;;;15.13;4.07;;;;;;;25.47;64.27;100539.78;4809108;29;20061;-74
2021/06/18 07:51:50;;;;;;;17.65;3.97;;;;;;;25.59;63.96;100530.03;4840258;29;20076;-68
2021/06/18 07:54:19;;;;;;;13.20;4.40;;;;;;;25.40;64.10;100528.59;4842476;29;20053;-70
2021/06/18 07:56:47;;;;;;;9.70;3.95;;;;;;;25.43;64.13;100530.59;4903554;29;20520;-67
2021/06/18 07:59:14;;;;;;;13.13;3.78;;;;;;;25.34;64.05;100527.41;4840363;29;20136;-75
2021/06/18 08:01:42;;;;;;;10.50;3.95;;;;;;;25.37;64.66;100531.44;4840341;29;20049;-68
2021/06/18 08:04:09;;;;;;;12.45;4.55;;;;;;;25.33;64.09;100536.31;4902137;29;20058;-70
2021/06/18 08:06:37;;;;;;;12.70;4.18;;;;;;;25.38;64.02;100533.06;4823133;29;20058;-68
2021/06/18 08:09:05;;;;;;;14.50;3.97;;;;;;;25.47;64.23;100530.56;4839678;29;20058;-73
2021/06/18 08:11:32;;;;;;;9.38;4.20;;;;;;;25.60;63.50;100520.31;4839668;29;20061;-72
2021/06/18 08:14:00;;;;;;;13.60;4.43;;;;;;;25.62;63.70;100519.91;4838498;29;20050;-70
2021/06/18 08:16:27;;;;;;;13.40;4.47;;;;;;;25.90;63.05;100511.91;4838958;29;20049;-70
2021/06/18 08:18:56;;;;;;;12.10;3.67;;;;;;;25.89;61.64;100515.16;4836646;29;20054;-66
2021/06/18 08:21:24;;;;;;;10.98;4.00;;;;;;;25.85;62.46;100509.56;4886823;29;20383;-68
2021/06/18 08:23:51;;;;;;;11.38;4.25;;;;;;;25.69;62.74;100514.19;4840646;29;20050;-72
2021/06/18 08:30:45;;;;;;;20.27;4.55;;;;;;;25.92;61.23;100509.47;4837338;29;20057;-67
2021/06/18 08:33:18;;;;;;;14.80;4.68;;;;;;;25.95;61.08;100510.63;4836172;29;20058;-78
2021/06/18 08:35:46;;;;;;;17.83;4.20;;;;;;;26.23;60.26;100508.28;4837944;29;20053;-72
2021/06/18 08:38:14;;;;;;;10.63;3.90;;;;;;;26.52;58.65;100503.81;4838015;29;20417;-69
2021/06/18 08:40:41;;;;;;;10.82;4.28;;;;;;;26.45;58.22;100498.25;4836618;29;20494;-69
2021/06/18 08:43:09;;;;;;;12.35;4.10;;;;;;;26.52;58.39;100495.34;4837716;29;20057;-70
2021/06/18 08:45:36;;;;;;;15.98;4.70;;;;;;;26.86;58.01;100491.59;4839427;29;20057;-74
2021/06/18 08:48:04;;;;;;;14.93;5.03;;;;;;;27.06;56.78;100500.97;4840903;29;20061;-76
2021/06/18 08:50:32;;;;;;;10.93;4.13;;;;;;;27.03;56.85;100494.13;4841213;29;20054;-69
2021/06/18 08:53:01;;;;;;;10.98;4.82;;;;;;;27.10;56.18;100493.19;4839437;29;20050;-77
2021/06/18 08:55:30;;;;;;;10.90;4.00;;;;;;;27.08;55.64;100495.66;4841058;29;20058;-74
2021/06/18 08:58:02;;;;;;;11.10;3.50;;;;;;;26.92;56.10;100493.50;4839494;29;20258;-68
2021/06/18 09:00:31;;;;;;;11.45;3.60;;;;;;;26.46;56.95;100505.53;4840928;29;20046;-65
2021/06/18 09:02:59;;;;;;;10.30;4.57;;;;;;;26.96;56.20;100502.72;4839645;29;20065;-65
2021/06/18 09:05:27;;;;;;;9.70;4.07;;;;;;;26.83;55.78;100506.59;4904678;29;20069;-68
2021/06/18 09:08:04;;;;;;;11.30;4.00;;;;;;;26.18;57.60;100522.88;4842280;29;20494;-68
2021/06/18 09:10:42;;;;;;;13.43;3.58;;;;;;;26.49;56.30;100520.81;4839617;29;20065;-66
2021/06/18 09:13:23;;;;;;;9.20;4.32;;;;;;;26.71;56.16;100519.28;4838564;29;20054;-69
2021/06/18 09:15:56;;;;;;;9.50;3.75;;;;;;;26.90;55.54;100524.25;4838906;29;20064;-69
2021/06/18 09:18:27;;;;;;;15.63;4.28;;;;;;;26.76;55.93;100515.19;4839086;29;20061;-68
2021/06/18 09:21:13;;;;;;;9.10;3.45;;;;;;;26.76;56.03;100515.19;4840622;29;20138;-68
2021/06/18 09:23:56;;;;;;;8.80;3.58;;;;;;;27.15;54.50;100506.84;4840487;29;20050;-68
2021/06/18 09:26:30;;;;;;;10.10;3.33;;;;;;;27.04;54.52;100514.72;4839411;29;20069;-69
2021/06/18 09:28:59;;;;;;;10.13;3.65;;;;;;;26.82;54.74;100511.44;4840469;29;20053;-65
2021/06/18 09:31:34;;;;;;;11.07;3.50;;;;;;;26.37;55.55;100515.75;4838934;29;20061;-65
2021/06/18 09:34:03;;;;;;;10.40;3.38;;;;;;;26.81;55.01;100514.69;4839867;29;20058;-64
2021/06/18 09:36:31;;;;;;;10.43;3.35;;;;;;;26.83;55.48;100517.91;4840228;29;20046;-65
2021/06/18 09:39:00;;;;;;;10.25;3.40;;;;;;;26.86;55.08;100512.19;4841159;29;20046;-67
2021/06/18 09:41:38;;;;;;;8.40;3.30;;;;;;;27.08;54.46;100521.09;4841068;29;20608;-74
2021/06/18 09:44:07;;;;;;;8.82;3.30;;;;;;;26.98;54.32;100520.06;4838347;29;20058;-68
2021/06/18 09:46:55;;;;;;;10.43;3.47;;;;;;;27.05;54.20;100514.28;4841339;29;20073;-64
2021/06/18 09:49:31;;;;;;;10.45;3.58;;;;;;;27.06;53.57;100526.41;4839502;29;20069;-65
2021/06/18 09:52:26;;;;;;;8.40;2.88;;;;;;;26.82;53.50;100527.59;4839293;29;20058;-65
2021/06/18 09:54:53;;;;;;;13.05;3.20;;;;;;;26.77;53.71;100528.09;4837591;29;20410;-67
2021/06/18 09:57:23;;;;;;;8.20;2.95;;;;;;;26.96;53.51;100522.53;4839963;29;20058;-67
2021/06/18 09:59:52;;;;;;;;;;;;;;;26.99;52.86;100526.53;4840120;29;20061;-66
2021/06/18 10:02:21;;;;;;;5.95;2.30;;;;;;;27.19;51.38;100531.03;4839584;29;19924;-65
2021/06/18 10:04:51;;;;;;;5.03;2.00;;;;;;;27.15;51.42;100529.47;4840001;29;20520;-65
2021/06/18 10:07:24;;;;;;;5.88;2.10;;;;;;;27.16;51.53;100531.06;4901726;29;20068;-69
2021/06/18 10:09:55;;;;;;;10.30;2.15;;;;;;;27.24;49.79;100522.03;4840188;29;20050;-65
2021/06/18 10:12:22;;;;;;;5.90;2.10;;;;;;;27.19;50.13;100535.88;4902550;29;20046;-66
2021/06/18 10:14:50;;;;;;;6.80;2.15;;;;;;;27.04;50.44;100532.47;4808811;29;20059;-64
2021/06/18 10:17:18;;;;;;;7.55;2.15;;;;;;;26.91;49.92;100539.97;4839968;29;20391;-62
2021/06/18 10:19:45;;;;;;;6.03;1.90;;;;;;;27.03;50.15;100536.53;4839837;29;20046;-64
2021/06/18 10:22:15;;;;;;;8.35;2.40;;;;;;;26.92;50.21;100533.06;4823295;29;20054;-64
2021/06/18 10:24:59;;;;;;;4.95;2.10;;;;;;;27.09;49.77;100540.50;4838491;29;20053;-68
2021/06/18 10:27:29;;;;;;;6.72;2.30;;;;;;;27.26;49.97;100541.41;4838825;29;20058;-65
2021/06/18 10:29:57;;;;;;;5.50;2.10;;;;;;;27.16;50.24;100539.56;4825116;29;20053;-82
2021/06/18 10:32:29;;;;;;;6.20;2.38;;;;;;;27.15;49.56;100527.44;4840015;29;20054;-72
2021/06/18 10:34:58;;;;;;;9.27;2.60;;;;;;;26.86;49.88;100537.63;4839380;29;20516;-71
2021/06/18 10:37:28;;;;;;;8.15;2.45;;;;;;;27.04;50.06;100540.19;4840099;29;20057;-71
2021/06/18 10:40:06;;;;;;;7.13;2.47;;;;;;;27.01;50.85;100539.00;4840116;29;20061;-68
2021/06/18 10:42:33;;;;;;;8.95;2.90;;;;;;;27.33;50.07;100546.97;4840571;29;20062;-76
2021/06/18 10:45:01;;;;;;;8.55;2.35;;;;;;;27.44;49.26;100547.59;4839776;29;20057;-67
2021/06/18 10:47:30;;;;;;;6.63;2.17;;;;;;;27.25;49.49;100543.41;4841502;29;20062;-65
2021/06/18 10:49:59;;;;;;;9.30;2.10;;;;;;;26.90;50.36;100557.38;4827076;29;20060;-71
2021/06/18 10:52:36;;;;;;;6.65;2.38;;;;;;;27.15;50.27;100552.91;4840573;29;20058;-70
2021/06/18 10:55:04;;;;;;;5.25;2.20;;;;;;;27.40;49.93;100558.97;4839338;29;20509;-73
2021/06/18 10:57:31;;;;;;;9.88;3.05;;;;;;;27.20;50.61;100563.72;4839852;29;20402;-67
2021/06/18 11:00:20;;;;;;;9.30;4.05;;;;;;;27.57;50.02;100555.00;4823250;29;20073;-72
2021/06/18 11:02:48;;;;;;;9.02;2.85;;;;;;;27.65;49.47;100550.78;4843083;29;20058;-75
2021/06/18 11:05:24;;;;;;;8.30;2.55;;;;;;;27.31;49.42;100563.56;4843247;29;20042;-80
2021/06/18 11:08:16;;;;;;;7.80;2.42;;;;;;;27.15;49.95;100563.41;4840174;29;20050;-71
2021/06/18 11:11:01;;;;;;;8.30;2.85;;;;;;;27.23;49.93;100547.94;4837317;29;20447;-65
2021/06/18 11:13:28;;;;;;;8.00;2.80;;;;;;;27.25;49.83;100556.78;4837915;29;20398;-66
2021/06/18 11:15:56;;;;;;;10.23;2.97;;;;;;;27.30;48.96;100559.16;4824775;29;20065;-72
2021/06/18 11:18:32;;;;;;;9.95;2.92;;;;;;;27.10;50.42;100566.72;4840247;29;20073;-79
2021/06/18 11:21:01;;;;;;;5.60;2.00;;;;;;;27.45;49.53;100566.16;4838471;29;20414;-64
2021/06/18 11:23:32;;;;;;;11.80;2.28;;;;;;;27.38;48.56;100563.44;4839362;29;20061;-64
2021/06/18 11:26:04;;;;;;;7.10;2.30;;;;;;;27.11;49.51;100571.94;4837719;29;20056;-68
2021/06/18 11:28:37;;;;;;;9.35;2.42;;;;;;;27.23;48.29;100574.16;4837509;29;20073;-76
2021/06/18 11:31:08;;;;;;;7.10;2.22;;;;;;;27.25;48.83;100568.88;4839779;29;20054;-71
2021/06/18 11:33:35;;;;;;;9.95;2.67;;;;;;;27.79;48.00;100575.22;4839144;29;20523;-69
2021/06/18 11:36:24;;;;;;;6.97;2.15;;;;;;;27.86;47.59;100568.63;4838605;29;20516;-68
2021/06/18 11:38:58;;;;;;;7.53;2.42;;;;;;;27.90;50.34;100587.13;4842318;29;20049;-59
2021/06/18 11:41:28;;;;;;;6.93;2.15;;;;;;;27.99;48.22;100583.75;4842696;29;20058;-72
2021/06/18 11:43:58;;;;;;;8.00;2.30;;;;;;;28.20;46.90;100586.97;4857664;29;20061;-74
2021/06/18 11:46:29;;;;;;;8.40;2.20;;;;;;;28.11;47.52;100583.91;4858506;29;20076;-75
2021/06/18 11:49:15;;;;;;;10.13;2.67;;;;;;;27.95;47.19;100588.69;4857572;29;20057;-74
2021/06/18 11:51:42;;;;;;;8.02;2.15;;;;;;;27.68;47.80;100583.91;4857196;29;20660;-73
2021/06/18 11:54:29;;;;;;;4.93;2.13;;;;;;;27.69;47.53;100588.34;4857363;29;20061;-75
2021/06/18 11:57:03;;;;;;;7.00;2.53;;;;;;;27.63;47.63;100594.94;4857265;29;20057;-74
2021/06/18 11:59:32;;;;;;;8.85;2.33;;;;;;;27.57;47.98;100596.66;4857298;29;20065;-69
2021/06/18 12:02:12;;;;;;;13.00;2.45;;;;;;;27.74;47.49;100589.84;4857463;29;20490;-72
2021/06/18 12:04:40;;;;;;;6.00;2.00;;;;;;;27.68;47.69;100589.59;4857131;29;20065;-76
2021/06/18 12:07:07;;;;;;;6.47;1.98;;;;;;;27.79;46.41;100591.41;4856856;29;20053;-75
2021/06/18 12:09:43;;;;;;;4.60;2.25;;;;;;;27.63;46.80;100589.28;4857005;29;20057;-73
2021/06/18 12:12:11;;;;;;;7.68;2.75;;;;;;;27.40;46.84;100598.56;4856639;29;20049;-75
2021/06/18 12:14:43;;;;;;;7.47;3.10;;;;;;;27.44;47.02;100598.50;4857265;29;20049;-76
2021/06/18 12:17:11;;;;;;;5.00;2.30;;;;;;;27.52;47.13;100600.78;4837014;29;20434;-74
2021/06/18 12:19:48;;;;;;;5.88;1.88;;;;;;;27.79;46.71;100595.03;4840529;29;20482;-74
2021/06/18 12:22:18;;;;;;;9.50;1.52;;;;;;;27.77;45.73;100582.53;4842591;29;20050;-78
2021/06/18 12:24:45;;;;;;;;;;;;;;;27.63;46.14;100587.22;4842373;29;20065;-71
2021/06/18 12:27:17;;;;;;;7.70;2.13;;;;;;;27.56;47.35;100589.41;4841236;29;19925;-73
2021/06/18 12:30:04;;;;;;;3.30;1.70;;;;;;;27.87;46.35;100592.84;4888783;29;20062;-74
2021/06/18 12:32:35;;;;;;;6.20;1.95;;;;;;;27.81;46.20;100586.88;4841484;29;20054;-73
2021/06/18 12:35:05;;;;;;;6.50;2.00;;;;;;;27.88;46.33;100591.63;4841353;29;20050;-72
2021/06/18 12:37:40;;;;;;;5.75;1.50;;;;;;;27.94;46.33;100592.75;4904948;29;20058;-73
2021/06/18 12:40:28;;;;;;;9.70;1.65;;;;;;;28.02;45.41;100605.56;4888499;29;20054;-73